createdAt,value
2023-05-10T00:02:09.026Z,68.88
2023-05-10T00:05:11.685Z,69.23
2023-05-10T00:08:14.762Z,69.24
2023-05-10T00:11:17.185Z,70.39
2023-05-10T00:14:20.606Z,70.05
2023-05-10T00:17:23.257Z,69.79
2023-05-10T00:20:26.086Z,69.80
2023-05-10T00:23:28.847Z,69.70
2023-05-10T00:26:31.440Z,70.10
2023-05-10T00:29:34.868Z,69.38
2023-05-10T00:32:38.464Z,68.77
2023-05-10T00:35:41.390Z,68.67
2023-05-10T00:38:45.596Z,70.17
2023-05-10T00:41:48.190Z,69.56
2023-05-10T00:44:52.529Z,69.38
2023-05-10T00:47:57.118Z,69.08
2023-05-10T00:50:59.977Z,68.09
2023-05-10T00:54:03.433Z,69.28
2023-05-10T00:57:06.138Z,68.76
2023-05-10T01:00:09.668Z,68.28
2023-05-10T01:03:12.693Z,68.53
2023-05-10T01:06:15.496Z,67.55
2023-05-10T01:09:19.486Z,68.52
2023-05-10T01:12:22.374Z,68.88
2023-05-10T01:15:25.436Z,69.10
2023-05-10T01:18:29.062Z,69.14
2023-05-10T01:21:46.387Z,68.62
2023-05-10T01:25:06.949Z,68.24
2023-05-10T01:28:36.815Z,68.72
2023-05-10T01:31:58.252Z,69.14
2023-05-10T01:35:07.580Z,67.80
2023-05-10T01:38:15.788Z,68.32
2023-05-10T01:41:34.218Z,68.05
2023-05-10T01:44:56.977Z,68.74
2023-05-10T01:48:11.937Z,68.52
2023-05-10T01:51:20.991Z,71.19
2023-05-10T01:54:25.818Z,70.39
2023-05-10T01:57:34.056Z,71.67
2023-05-10T02:00:41.068Z,71.02
2023-05-10T02:03:44.746Z,72.14
2023-05-10T02:06:49.187Z,72.11
2023-05-10T02:09:52.454Z,71.80
2023-05-10T02:12:56.836Z,72.55
2023-05-10T02:16:00.871Z,72.58
2023-05-10T02:19:05.360Z,73.69
2023-05-10T02:22:09.969Z,72.60
2023-05-10T02:25:15.079Z,72.20
2023-05-10T02:28:19.178Z,71.78
2023-05-10T02:31:23.177Z,72.84
2023-05-10T02:34:28.424Z,73.89
2023-05-10T02:37:32.496Z,73.12
2023-05-10T02:40:37.860Z,73.48
2023-05-10T02:43:41.907Z,75.20
2023-05-10T02:46:45.102Z,75.17
2023-05-10T02:49:48.598Z,75.24
2023-05-10T02:52:53.344Z,74.88
2023-05-10T02:56:00.283Z,74.80
2023-05-10T02:59:02.952Z,75.25
2023-05-10T03:02:06.396Z,74.11
2023-05-10T03:05:09.208Z,73.51
2023-05-10T03:08:12.177Z,73.88
2023-05-10T03:11:53.125Z,73.15
2023-05-10T03:15:11.086Z,72.46
2023-05-10T03:18:22.823Z,73.43
2023-05-10T03:21:29.884Z,72.76
2023-05-10T03:24:35.380Z,72.74
2023-05-10T03:27:41.520Z,72.65
2023-05-10T03:30:45.950Z,73.50
2023-05-10T03:33:50.824Z,72.89
2023-05-10T03:36:58.975Z,73.57
2023-05-10T03:40:05.553Z,72.61
2023-05-10T03:43:10.472Z,72.36
2023-05-10T03:46:13.483Z,71.58
2023-05-10T03:49:15.908Z,72.07
2023-05-10T03:52:19.547Z,71.39
2023-05-10T03:55:23.489Z,71.94
2023-05-10T03:58:26.802Z,71.11
2023-05-10T04:01:29.492Z,71.71
2023-05-10T04:04:32.215Z,71.17
2023-05-10T04:07:35.092Z,70.52
2023-05-10T04:10:38.199Z,70.92
2023-05-10T04:13:40.574Z,70.92
2023-05-10T04:16:43.516Z,71.11
2023-05-10T04:19:46.092Z,70.72
2023-05-10T04:22:49.135Z,71.40
2023-05-10T04:25:51.890Z,71.49
2023-05-10T04:28:54.533Z,71.72
2023-05-10T04:31:57.644Z,70.82
2023-05-10T04:35:00.397Z,71.02
2023-05-10T04:38:02.990Z,70.89
2023-05-10T04:41:10.321Z,69.70
2023-05-10T04:44:12.774Z,68.31
2023-05-10T04:47:15.677Z,68.65
2023-05-10T04:50:18.745Z,67.59
2023-05-10T04:53:21.999Z,67.14
2023-05-10T04:56:24.519Z,65.86
2023-05-10T04:59:27.636Z,65.70
2023-05-10T05:02:30.236Z,66.36
2023-05-10T05:05:32.995Z,66.01
2023-05-10T05:08:35.632Z,64.57
2023-05-10T05:11:38.419Z,63.87
2023-05-10T05:14:42.233Z,64.58
2023-05-10T05:17:45.299Z,63.87
2023-05-10T05:20:47.782Z,63.19
2023-05-10T05:23:50.715Z,63.20
2023-05-10T05:26:53.092Z,61.83
2023-05-10T05:29:56.360Z,61.33
2023-05-10T05:32:59.134Z,62.13
2023-05-10T05:36:03.083Z,61.73
2023-05-10T05:39:05.888Z,62.25
2023-05-10T05:42:09.098Z,61.02
2023-05-10T05:45:14.192Z,59.67
2023-05-10T05:48:17.117Z,61.12
2023-05-10T05:51:19.592Z,60.29
2023-05-10T05:54:22.681Z,61.90
2023-05-10T05:57:25.375Z,61.88
2023-05-10T06:00:28.125Z,62.88
2023-05-10T06:03:30.818Z,62.73
2023-05-10T06:06:33.571Z,59.91
2023-05-10T06:09:36.057Z,59.44
2023-05-10T06:12:38.909Z,55.77
2023-05-10T06:15:41.361Z,56.30
2023-05-10T06:18:43.982Z,57.65
2023-05-10T06:21:46.398Z,54.86
2023-05-10T06:24:49.215Z,55.50
2023-05-10T06:27:53.737Z,55.90
2023-05-10T06:30:56.797Z,54.96
2023-05-10T06:33:59.195Z,55.97
2023-05-10T06:37:01.784Z,55.99
2023-05-10T06:40:05.022Z,50.13
2023-05-10T06:43:08.286Z,50.07
2023-05-10T06:46:11.031Z,49.41
2023-05-10T06:49:13.759Z,48.36
2023-05-10T06:52:16.676Z,47.86
2023-05-10T06:55:39.130Z,47.49
2023-05-10T06:58:42.018Z,46.06
2023-05-10T07:01:44.752Z,46.15
2023-05-10T07:04:48.438Z,48.08
2023-05-10T07:07:51.376Z,48.89
2023-05-10T07:10:54.080Z,55.12
2023-05-10T07:13:57.066Z,56.56
2023-05-10T07:16:59.612Z,57.94
2023-05-10T07:20:02.637Z,57.85
2023-05-10T07:23:05.220Z,56.64
2023-05-10T07:26:08.131Z,56.17
2023-05-10T07:29:11.137Z,55.75
2023-05-10T07:32:13.770Z,53.05
2023-05-10T07:35:16.633Z,55.21
2023-05-10T07:38:19.346Z,50.70
2023-05-10T07:41:22.482Z,47.10
2023-05-10T07:44:25.428Z,45.73
2023-05-10T07:47:28.098Z,47.42
2023-05-10T07:50:30.702Z,48.70
2023-05-10T07:53:33.317Z,51.38
2023-05-10T07:56:36.063Z,50.80
2023-05-10T07:59:38.761Z,53.37
2023-05-10T08:02:41.931Z,52.05
2023-05-10T08:05:44.609Z,50.61
2023-05-10T08:08:50.456Z,49.67
2023-05-10T08:11:53.077Z,46.67
2023-05-10T08:14:55.675Z,49.84
2023-05-10T08:17:58.288Z,48.46
2023-05-10T08:21:00.787Z,48.62
2023-05-10T08:24:03.706Z,47.72
2023-05-10T08:27:06.652Z,48.09
2023-05-10T08:30:09.871Z,46.46
2023-05-10T08:33:12.600Z,48.89
2023-05-10T08:36:21.041Z,49.45
2023-05-10T08:39:30.340Z,48.59
2023-05-10T08:42:38.965Z,46.24
2023-05-10T08:45:44.000Z,51.48
2023-05-10T08:48:47.523Z,49.92
2023-05-10T08:51:56.138Z,51.84
2023-05-10T08:54:59.218Z,53.76
2023-05-10T08:58:01.919Z,49.46
2023-05-10T09:01:05.976Z,47.62
2023-05-10T09:04:08.745Z,54.39
2023-05-10T09:07:11.879Z,54.17
2023-05-10T09:10:15.854Z,54.99
2023-05-10T09:13:18.601Z,52.55
2023-05-10T09:16:22.478Z,55.52
2023-05-10T09:19:25.136Z,58.55
2023-05-10T09:22:28.235Z,60.14
2023-05-10T09:25:30.811Z,60.67
2023-05-10T09:28:52.542Z,60.63
2023-05-10T09:31:57.502Z,58.88
2023-05-10T09:35:07.812Z,59.67
2023-05-10T09:38:11.432Z,59.11
2023-05-10T09:41:22.567Z,60.27
2023-05-10T09:44:27.104Z,59.70
2023-05-10T09:47:30.083Z,58.83
2023-05-10T09:50:32.722Z,59.42
2023-05-10T09:53:35.658Z,58.83
2023-05-10T09:56:41.387Z,57.63
2023-05-10T09:59:44.636Z,57.35
2023-05-10T10:02:58.149Z,57.64
2023-05-10T10:06:01.494Z,56.94
2023-05-10T10:09:04.109Z,56.00
2023-05-10T10:12:06.887Z,54.13
2023-05-10T10:15:10.538Z,54.16
2023-05-10T10:18:18.199Z,53.04
2023-05-10T10:21:21.490Z,49.37
2023-05-10T10:24:24.088Z,49.40
2023-05-10T10:27:38.836Z,45.52
2023-05-10T10:30:49.180Z,41.65
2023-05-10T10:34:06.430Z,43.97
2023-05-10T10:37:09.473Z,41.92
2023-05-10T10:40:26.757Z,39.34
2023-05-10T10:43:30.000Z,40.78
2023-05-10T10:46:35.320Z,39.01
2023-05-10T10:49:41.181Z,38.97
2023-05-10T10:52:45.248Z,37.74
2023-05-10T10:55:49.198Z,40.45
2023-05-10T10:58:52.888Z,37.89
2023-05-10T11:01:55.619Z,37.54
2023-05-10T11:04:58.253Z,41.09
2023-05-10T11:08:01.940Z,37.41
2023-05-10T11:11:09.614Z,37.18
2023-05-10T11:14:12.438Z,36.39
2023-05-10T11:17:26.174Z,34.48
2023-05-10T11:20:34.306Z,34.33
2023-05-10T11:23:57.343Z,35.00
2023-05-10T11:30:04.832Z,35.45
2023-05-10T11:33:10.874Z,36.83
2023-05-10T11:36:19.167Z,32.65
2023-05-10T11:39:22.787Z,32.42
2023-05-10T11:42:25.811Z,33.27
2023-05-10T11:45:30.106Z,34.00
2023-05-10T11:48:32.934Z,32.82
2023-05-10T11:51:37.330Z,33.17
2023-05-10T11:54:52.835Z,35.87
2023-05-10T11:57:56.031Z,33.54
2023-05-10T12:01:00.332Z,33.98
2023-05-10T12:04:03.345Z,33.47
2023-05-10T12:07:06.308Z,36.63
2023-05-10T12:10:15.616Z,32.32
2023-05-10T12:13:20.634Z,31.88
2023-05-10T12:16:29.840Z,33.30
2023-05-10T12:19:39.740Z,35.02
2023-05-10T12:22:44.937Z,35.77
2023-05-10T12:25:48.203Z,37.54
2023-05-10T12:28:50.916Z,35.00
2023-05-10T12:31:58.157Z,35.19
2023-05-10T12:35:00.890Z,35.57
2023-05-10T12:38:31.954Z,36.65
2023-05-10T12:41:34.558Z,37.49
2023-05-10T12:44:37.075Z,37.02
2023-05-10T12:47:41.407Z,37.02
2023-05-10T12:50:45.726Z,36.15
2023-05-10T12:53:49.704Z,35.86
2023-05-10T12:56:52.342Z,36.23
2023-05-10T12:59:55.717Z,36.11
2023-05-10T13:02:58.369Z,37.50
2023-05-10T13:06:01.292Z,36.97
2023-05-10T13:09:04.735Z,36.64
2023-05-10T13:12:09.913Z,38.59
2023-05-10T13:15:12.760Z,39.44
2023-05-10T13:18:15.418Z,38.00
2023-05-10T13:21:18.103Z,40.76
2023-05-10T13:24:20.596Z,39.08
2023-05-10T13:27:23.322Z,37.46
2023-05-10T13:30:26.217Z,37.29
2023-05-10T13:33:29.001Z,37.44
2023-05-10T13:36:32.548Z,36.82
2023-05-10T13:39:35.670Z,37.08
2023-05-10T13:42:38.552Z,36.48
2023-05-10T13:45:41.079Z,38.35
2023-05-10T13:48:43.752Z,36.52
2023-05-10T13:51:46.273Z,34.86
2023-05-10T13:54:49.078Z,38.50
2023-05-10T13:57:51.617Z,37.26
2023-05-10T14:00:54.265Z,35.84
2023-05-10T14:03:57.016Z,37.76
2023-05-10T14:06:59.726Z,38.47
2023-05-10T14:10:02.436Z,37.57
2023-05-10T14:13:04.923Z,37.26
2023-05-10T14:16:07.745Z,36.31
2023-05-10T14:19:10.584Z,34.76
2023-05-10T14:22:13.180Z,33.57
2023-05-10T14:25:16.088Z,37.93
2023-05-10T14:28:19.779Z,35.97
2023-05-10T14:31:22.738Z,36.66
2023-05-10T14:34:25.351Z,36.56
2023-05-10T14:37:27.993Z,36.73
2023-05-10T14:40:31.345Z,36.14
2023-05-10T14:43:34.173Z,34.64
2023-05-10T14:46:37.299Z,33.79
2023-05-10T14:49:40.163Z,33.22
2023-05-10T14:52:42.684Z,33.32
2023-05-10T14:55:45.484Z,35.05
2023-05-10T14:58:48.025Z,33.54
2023-05-10T15:01:51.031Z,33.70
2023-05-10T15:04:58.599Z,32.56
2023-05-10T15:08:01.630Z,35.05
2023-05-10T15:11:04.556Z,32.31
2023-05-10T15:14:07.260Z,35.62
2023-05-10T15:17:10.050Z,34.78
2023-05-10T15:20:12.810Z,32.24
2023-05-10T15:23:15.398Z,32.93
2023-05-10T15:26:18.065Z,32.63
2023-05-10T15:29:21.238Z,32.91
2023-05-10T15:32:23.733Z,33.48
2023-05-10T15:35:27.406Z,33.62
2023-05-10T15:38:29.854Z,32.80
2023-05-10T15:41:32.648Z,33.02
2023-05-10T15:44:36.156Z,33.33
2023-05-10T15:47:40.717Z,32.45
2023-05-10T15:50:43.739Z,33.89
2023-05-10T15:54:00.405Z,32.97
2023-05-10T15:57:08.730Z,32.80
2023-05-10T16:00:13.226Z,34.05
2023-05-10T16:03:16.417Z,34.99
2023-05-10T16:06:19.133Z,33.94
2023-05-10T16:09:22.040Z,33.60
2023-05-10T16:12:24.855Z,33.12
2023-05-10T16:15:27.653Z,34.14
2023-05-10T16:18:30.537Z,35.65
2023-05-10T16:21:33.514Z,34.42
2023-05-10T16:24:37.112Z,34.94
2023-05-10T16:27:39.737Z,34.97
2023-05-10T16:30:42.345Z,33.82
2023-05-10T16:33:45.115Z,34.22
2023-05-10T16:36:47.766Z,35.91
2023-05-10T16:39:50.286Z,36.31
2023-05-10T16:42:52.923Z,36.26
2023-05-10T16:45:55.499Z,35.98
2023-05-10T16:48:59.994Z,36.07
2023-05-10T16:52:03.304Z,39.85
2023-05-10T16:55:06.774Z,39.39
2023-05-10T16:58:09.925Z,39.73
2023-05-10T17:01:12.900Z,39.11
2023-05-10T17:04:16.515Z,38.12
2023-05-10T17:07:19.665Z,38.44
2023-05-10T17:10:22.041Z,38.24
2023-05-10T17:13:25.146Z,41.02
2023-05-10T17:16:28.004Z,40.80
2023-05-10T17:19:30.836Z,41.59
2023-05-10T17:22:33.664Z,41.81
2023-05-10T17:25:36.875Z,43.51
2023-05-10T17:28:39.339Z,42.69
2023-05-10T17:31:42.214Z,44.18
2023-05-10T17:34:44.736Z,44.37
2023-05-10T17:37:47.407Z,46.04
2023-05-10T17:40:51.087Z,45.62
2023-05-10T17:43:54.394Z,46.98
2023-05-10T17:46:57.028Z,47.23
2023-05-10T17:49:59.828Z,47.50
2023-05-10T17:53:02.979Z,48.30
2023-05-10T17:56:05.968Z,47.42
2023-05-10T17:59:08.954Z,47.73
2023-05-10T18:02:11.588Z,48.30
2023-05-10T18:05:14.397Z,49.00
2023-05-10T18:08:22.616Z,49.65
2023-05-10T18:11:25.057Z,51.13
2023-05-10T18:14:40.095Z,51.11
2023-05-10T18:17:43.927Z,51.66
2023-05-10T18:20:46.789Z,51.61
2023-05-10T18:23:49.697Z,52.78
2023-05-10T18:26:52.657Z,52.91
2023-05-10T18:29:55.276Z,53.86
2023-05-10T18:32:58.612Z,54.24
2023-05-10T18:36:02.424Z,54.42
2023-05-10T18:39:05.632Z,53.97
2023-05-10T18:42:09.151Z,54.75
2023-05-10T18:45:12.913Z,55.06
2023-05-10T18:48:15.559Z,54.13
2023-05-10T18:51:18.533Z,54.68
2023-05-10T18:54:21.132Z,54.75
2023-05-10T18:57:24.242Z,55.46
2023-05-10T19:00:27.277Z,55.72
2023-05-10T19:03:30.336Z,55.12
2023-05-10T19:06:33.837Z,54.24
2023-05-10T19:09:36.897Z,55.48
2023-05-10T19:12:41.345Z,56.36
2023-05-10T19:15:44.505Z,55.93
2023-05-10T19:18:47.410Z,55.52
2023-05-10T19:21:50.459Z,54.85
2023-05-10T19:24:53.571Z,55.12
2023-05-10T19:27:57.971Z,54.55
2023-05-10T19:31:01.837Z,54.34
2023-05-10T19:34:04.846Z,54.55
2023-05-10T19:37:07.719Z,53.95
2023-05-10T19:40:10.553Z,54.43
2023-05-10T19:43:13.443Z,53.63
2023-05-10T19:46:17.933Z,53.67
2023-05-10T19:49:23.308Z,53.25
2023-05-10T19:52:26.121Z,53.75
2023-05-10T19:55:30.020Z,54.61
2023-05-10T19:58:33.750Z,55.48
2023-05-10T20:01:36.641Z,56.01
2023-05-10T20:04:39.679Z,55.03
2023-05-10T20:07:42.223Z,54.50
2023-05-10T20:10:45.278Z,54.68
2023-05-10T20:13:47.665Z,55.03
2023-05-10T20:16:50.618Z,55.48
2023-05-10T20:19:53.141Z,55.68
2023-05-10T20:22:55.789Z,56.00
2023-05-10T20:25:58.586Z,55.55
2023-05-10T20:29:01.277Z,55.79
2023-05-10T20:32:04.052Z,56.17
2023-05-10T20:35:07.519Z,56.13
2023-05-10T20:38:10.373Z,56.68
2023-05-10T20:41:13.075Z,56.24
2023-05-10T20:44:15.712Z,57.14
2023-05-10T20:47:18.619Z,56.63
2023-05-10T20:50:21.173Z,57.44
2023-05-10T20:53:23.886Z,56.52
2023-05-10T20:56:26.841Z,57.60
2023-05-10T20:59:29.660Z,56.63
2023-05-10T21:02:33.932Z,57.02
2023-05-10T21:05:36.891Z,57.10
2023-05-10T21:08:39.532Z,57.53
2023-05-10T21:11:42.208Z,58.36
2023-05-10T21:14:46.860Z,58.18
2023-05-10T21:17:49.840Z,58.22
2023-05-10T21:20:52.520Z,58.70
2023-05-10T21:23:55.100Z,58.57
2023-05-10T21:26:57.840Z,58.62
2023-05-10T21:30:00.550Z,58.59
2023-05-10T21:33:03.707Z,58.58
2023-05-10T21:36:06.683Z,58.37
2023-05-10T21:39:09.123Z,58.73
2023-05-10T21:42:11.935Z,58.02
2023-05-10T21:45:14.344Z,57.78
2023-05-10T21:48:16.956Z,57.77
2023-05-10T21:51:19.674Z,59.01
2023-05-10T21:54:22.338Z,60.70
2023-05-10T21:57:25.114Z,62.53
2023-05-10T22:00:27.915Z,63.12
2023-05-10T22:03:31.036Z,63.63
2023-05-10T22:06:33.709Z,64.23
2023-05-10T22:09:36.660Z,65.55
2023-05-10T22:12:39.336Z,65.40
2023-05-10T22:15:41.947Z,65.28
2023-05-10T22:18:44.719Z,65.14
2023-05-10T22:21:47.462Z,64.64
2023-05-10T22:24:50.158Z,65.59
2023-05-10T22:27:52.978Z,65.29
2023-05-10T22:30:55.720Z,65.05
2023-05-10T22:33:58.419Z,65.20
2023-05-10T22:37:02.854Z,66.04
2023-05-10T22:40:05.973Z,65.93
2023-05-10T22:43:08.802Z,67.23
2023-05-10T22:46:11.215Z,67.21
2023-05-10T22:49:14.332Z,67.62
2023-05-10T22:52:16.878Z,69.04
2023-05-10T22:55:19.631Z,69.48
2023-05-10T22:58:22.066Z,70.06
2023-05-10T23:01:24.710Z,70.45
2023-05-10T23:04:27.834Z,70.57
2023-05-10T23:07:30.456Z,71.69
2023-05-10T23:10:33.045Z,71.54
2023-05-10T23:13:36.098Z,71.97
2023-05-10T23:16:39.173Z,71.60
2023-05-10T23:19:42.344Z,72.66
2023-05-10T23:22:45.004Z,72.35
2023-05-10T23:25:47.730Z,72.46
2023-05-10T23:28:50.104Z,72.02
2023-05-10T23:31:53.288Z,71.90
2023-05-10T23:34:55.733Z,72.08
2023-05-10T23:37:58.737Z,72.41
2023-05-10T23:41:01.412Z,72.60
2023-05-10T23:44:04.376Z,72.49
2023-05-10T23:47:07.313Z,72.68
2023-05-10T23:50:10.725Z,73.03
2023-05-10T23:53:13.145Z,72.96
2023-05-10T23:56:15.945Z,72.80
2023-05-10T23:59:18.667Z,72.80
